sensor_id;sensor_type;location;lat;lon;timestamp;P1;durP1;ratioP1;P2;durP2;ratioP2
15667;SDS011;7934;48.710;9.024;2023-02-01T00:00:14;7.35;;;6.65;;
15667;SDS011;7934;48.710;9.024;2023-02-01T00:02:41;9.57;;;6.65;;
15667;SDS011;7934;48.710;9.024;2023-02-01T00:05:09;6.65;;;5.88;;
15667;SDS011;7934;48.710;9.024;2023-02-01T00:07:36;6.78;;;5.63;;
15667;SDS011;7934;48.710;9.024;2023-02-01T00:10:05;7.78;;;6.30;;
15667;SDS011;7934;48.710;9.024;2023-02-01T00:12:33;7.20;;;6.00;;
15667;SDS011;7934;48.710;9.024;2023-02-01T00:15:00;7.03;;;5.60;;
15667;SDS011;7934;48.710;9.024;2023-02-01T00:17:27;6.30;;;5.70;;
15667;SDS011;7934;48.710;9.024;2023-02-01T00:19:54;6.38;;;5.78;;
15667;SDS011;7934;48.710;9.024;2023-02-01T00:22:21;6.68;;;6.10;;
15667;SDS011;7934;48.710;9.024;2023-02-01T00:24:48;5.95;;;5.45;;
15667;SDS011;7934;48.710;9.024;2023-02-01T00:27:17;5.82;;;5.32;;
15667;SDS011;7934;48.710;9.024;2023-02-01T00:29:46;5.60;;;5.00;;
15667;SDS011;7934;48.710;9.024;2023-02-01T00:32:13;5.85;;;5.35;;
15667;SDS011;7934;48.710;9.024;2023-02-01T00:34:40;5.57;;;5.07;;
15667;SDS011;7934;48.710;9.024;2023-02-01T00:37:07;5.10;;;4.70;;
15667;SDS011;7934;48.710;9.024;2023-02-01T00:39:34;4.93;;;4.55;;
15667;SDS011;7934;48.710;9.024;2023-02-01T00:42:01;5.28;;;4.65;;
15667;SDS011;7934;48.710;9.024;2023-02-01T00:44:30;4.90;;;4.47;;
15667;SDS011;7934;48.710;9.024;2023-02-01T00:46:59;4.82;;;4.47;;
15667;SDS011;7934;48.710;9.024;2023-02-01T00:49:26;4.32;;;3.97;;
15667;SDS011;7934;48.710;9.024;2023-02-01T00:51:53;4.03;;;3.73;;
15667;SDS011;7934;48.710;9.024;2023-02-01T00:54:21;4.10;;;3.80;;
15667;SDS011;7934;48.710;9.024;2023-02-01T00:56:48;4.57;;;4.28;;
15667;SDS011;7934;48.710;9.024;2023-02-01T00:59:15;4.18;;;3.65;;
15667;SDS011;7934;48.710;9.024;2023-02-01T01:01:43;3.97;;;3.67;;
15667;SDS011;7934;48.710;9.024;2023-02-01T01:04:10;3.60;;;3.40;;
15667;SDS011;7934;48.710;9.024;2023-02-01T01:06:38;3.78;;;3.58;;
15667;SDS011;7934;48.710;9.024;2023-02-01T01:09:05;4.20;;;3.80;;
15667;SDS011;7934;48.710;9.024;2023-02-01T01:11:34;3.65;;;3.45;;
15667;SDS011;7934;48.710;9.024;2023-02-01T01:14:02;3.70;;;3.50;;
15667;SDS011;7934;48.710;9.024;2023-02-01T01:16:29;4.30;;;4.00;;
15667;SDS011;7934;48.710;9.024;2023-02-01T01:18:58;4.60;;;4.17;;
15667;SDS011;7934;48.710;9.024;2023-02-01T01:21:25;3.80;;;3.47;;
15667;SDS011;7934;48.710;9.024;2023-02-01T01:23:53;3.92;;;3.63;;
15667;SDS011;7934;48.710;9.024;2023-02-01T01:26:20;3.10;;;3.00;;
15667;SDS011;7934;48.710;9.024;2023-02-01T01:28:48;3.75;;;3.30;;
15667;SDS011;7934;48.710;9.024;2023-02-01T01:31:16;3.63;;;3.42;;
15667;SDS011;7934;48.710;9.024;2023-02-01T01:33:43;3.25;;;2.95;;
15667;SDS011;7934;48.710;9.024;2023-02-01T01:36:12;3.17;;;2.95;;
15667;SDS011;7934;48.710;9.024;2023-02-01T01:38:39;3.40;;;3.10;;
15667;SDS011;7934;48.710;9.024;2023-02-01T01:41:07;3.67;;;3.45;;
15667;SDS011;7934;48.710;9.024;2023-02-01T01:43:47;3.10;;;2.90;;
15667;SDS011;7934;48.710;9.024;2023-02-01T01:46:15;3.30;;;3.00;;
15667;SDS011;7934;48.710;9.024;2023-02-01T01:48:43;3.67;;;3.37;;
15667;SDS011;7934;48.710;9.024;2023-02-01T01:51:11;4.22;;;3.92;;
15667;SDS011;7934;48.710;9.024;2023-02-01T01:53:41;4.53;;;4.15;;
15667;SDS011;7934;48.710;9.024;2023-02-01T01:56:10;5.03;;;4.63;;
15667;SDS011;7934;48.710;9.024;2023-02-01T01:58:37;5.37;;;4.97;;
15667;SDS011;7934;48.710;9.024;2023-02-01T02:01:04;5.85;;;5.45;;
15667;SDS011;7934;48.710;9.024;2023-02-01T02:03:32;5.60;;;5.15;;
15667;SDS011;7934;48.710;9.024;2023-02-01T02:06:00;5.55;;;5.10;;
15667;SDS011;7934;48.710;9.024;2023-02-01T02:08:29;5.93;;;5.43;;
15667;SDS011;7934;48.710;9.024;2023-02-01T02:10:56;5.53;;;5.03;;
15667;SDS011;7934;48.710;9.024;2023-02-01T02:13:27;6.30;;;5.70;;
15667;SDS011;7934;48.710;9.024;2023-02-01T02:15:59;6.18;;;5.57;;
15667;SDS011;7934;48.710;9.024;2023-02-01T02:18:30;5.82;;;5.40;;
15667;SDS011;7934;48.710;9.024;2023-02-01T02:21:03;5.43;;;5.03;;
15667;SDS011;7934;48.710;9.024;2023-02-01T02:29:31;5.60;;;5.15;;
15667;SDS011;7934;48.710;9.024;2023-02-01T02:32:21;5.40;;;4.90;;
15667;SDS011;7934;48.710;9.024;2023-02-01T02:34:52;5.32;;;4.78;;
15667;SDS011;7934;48.710;9.024;2023-02-01T02:37:22;5.47;;;4.60;;
15667;SDS011;7934;48.710;9.024;2023-02-01T02:39:53;4.80;;;4.40;;
15667;SDS011;7934;48.710;9.024;2023-02-01T02:42:25;4.78;;;4.38;;
15667;SDS011;7934;48.710;9.024;2023-02-01T02:45:12;4.55;;;4.20;;
15667;SDS011;7934;48.710;9.024;2023-02-01T02:48:02;4.50;;;4.10;;
15667;SDS011;7934;48.710;9.024;2023-02-01T02:50:34;3.90;;;3.70;;
15667;SDS011;7934;48.710;9.024;2023-02-01T02:53:21;3.78;;;3.53;;
15667;SDS011;7934;48.710;9.024;2023-02-01T02:56:07;4.07;;;3.78;;
15667;SDS011;7934;48.710;9.024;2023-02-01T02:58:53;3.95;;;3.65;;
15667;SDS011;7934;48.710;9.024;2023-02-01T03:01:39;3.90;;;3.60;;
15667;SDS011;7934;48.710;9.024;2023-02-01T03:04:24;3.78;;;3.47;;
15667;SDS011;7934;48.710;9.024;2023-02-01T03:06:53;3.90;;;3.60;;
15667;SDS011;7934;48.710;9.024;2023-02-01T03:09:24;3.55;;;3.35;;
15667;SDS011;7934;48.710;9.024;2023-02-01T03:11:55;3.92;;;3.63;;
15667;SDS011;7934;48.710;9.024;2023-02-01T03:14:42;3.50;;;3.30;;
15667;SDS011;7934;48.710;9.024;2023-02-01T03:17:11;3.70;;;3.50;;
15667;SDS011;7934;48.710;9.024;2023-02-01T03:19:40;3.47;;;3.30;;
15667;SDS011;7934;48.710;9.024;2023-02-01T03:22:15;3.30;;;3.00;;
15667;SDS011;7934;48.710;9.024;2023-02-01T03:24:44;3.20;;;3.10;;
15667;SDS011;7934;48.710;9.024;2023-02-01T03:27:14;3.67;;;3.38;;
15667;SDS011;7934;48.710;9.024;2023-02-01T03:29:45;4.35;;;3.42;;
15667;SDS011;7934;48.710;9.024;2023-02-01T03:32:15;3.80;;;3.50;;
15667;SDS011;7934;48.710;9.024;2023-02-01T03:34:42;3.85;;;3.55;;
15667;SDS011;7934;48.710;9.024;2023-02-01T03:37:10;4.00;;;3.70;;
15667;SDS011;7934;48.710;9.024;2023-02-01T03:39:39;3.70;;;3.50;;
15667;SDS011;7934;48.710;9.024;2023-02-01T03:42:09;3.85;;;3.55;;
15667;SDS011;7934;48.710;9.024;2023-02-01T03:44:41;4.00;;;3.70;;
15667;SDS011;7934;48.710;9.024;2023-02-01T03:47:09;3.38;;;3.17;;
15667;SDS011;7934;48.710;9.024;2023-02-01T03:49:40;3.97;;;3.35;;
15667;SDS011;7934;48.710;9.024;2023-02-01T03:52:09;3.50;;;3.30;;
15667;SDS011;7934;48.710;9.024;2023-02-01T03:54:37;3.50;;;3.30;;
15667;SDS011;7934;48.710;9.024;2023-02-01T03:57:07;3.50;;;3.30;;
15667;SDS011;7934;48.710;9.024;2023-02-01T03:59:38;3.53;;;3.23;;
15667;SDS011;7934;48.710;9.024;2023-02-01T04:02:05;3.53;;;3.33;;
15667;SDS011;7934;48.710;9.024;2023-02-01T04:04:32;3.28;;;3.08;;
15667;SDS011;7934;48.710;9.024;2023-02-01T04:07:00;3.35;;;3.10;;
15667;SDS011;7934;48.710;9.024;2023-02-01T04:09:27;4.10;;;3.80;;
15667;SDS011;7934;48.710;9.024;2023-02-01T04:11:54;3.22;;;3.05;;
15667;SDS011;7934;48.710;9.024;2023-02-01T04:14:23;3.50;;;3.20;;
15667;SDS011;7934;48.710;9.024;2023-02-01T04:16:50;2.72;;;2.63;;
15667;SDS011;7934;48.710;9.024;2023-02-01T04:19:17;3.33;;;3.10;;
15667;SDS011;7934;48.710;9.024;2023-02-01T04:21:45;3.15;;;2.85;;
15667;SDS011;7934;48.710;9.024;2023-02-01T04:24:12;3.10;;;2.90;;
15667;SDS011;7934;48.710;9.024;2023-02-01T04:26:39;4.00;;;2.80;;
15667;SDS011;7934;48.710;9.024;2023-02-01T04:29:07;2.80;;;2.60;;
15667;SDS011;7934;48.710;9.024;2023-02-01T04:31:36;4.43;;;2.80;;
15667;SDS011;7934;48.710;9.024;2023-02-01T04:34:03;2.78;;;2.67;;
15667;SDS011;7934;48.710;9.024;2023-02-01T04:36:31;3.42;;;3.22;;
15667;SDS011;7934;48.710;9.024;2023-02-01T04:38:58;3.38;;;3.17;;
15667;SDS011;7934;48.710;9.024;2023-02-01T04:41:25;3.73;;;3.53;;
15667;SDS011;7934;48.710;9.024;2023-02-01T04:43:52;3.78;;;3.50;;
15667;SDS011;7934;48.710;9.024;2023-02-01T04:46:19;3.80;;;3.60;;
15667;SDS011;7934;48.710;9.024;2023-02-01T04:48:48;4.05;;;3.65;;
15667;SDS011;7934;48.710;9.024;2023-02-01T04:51:15;4.32;;;4.03;;
15667;SDS011;7934;48.710;9.024;2023-02-01T04:53:43;3.73;;;3.43;;
15667;SDS011;7934;48.710;9.024;2023-02-01T04:56:10;4.20;;;3.90;;
15667;SDS011;7934;48.710;9.024;2023-02-01T04:58:37;4.53;;;4.13;;
15667;SDS011;7934;48.710;9.024;2023-02-01T05:01:04;4.65;;;4.25;;
15667;SDS011;7934;48.710;9.024;2023-02-01T05:03:32;4.57;;;3.60;;
15667;SDS011;7934;48.710;9.024;2023-02-01T05:06:01;3.83;;;3.53;;
15667;SDS011;7934;48.710;9.024;2023-02-01T05:08:30;3.90;;;3.53;;
15667;SDS011;7934;48.710;9.024;2023-02-01T05:10:57;4.07;;;3.67;;
15667;SDS011;7934;48.710;9.024;2023-02-01T05:13:27;4.30;;;3.90;;
15667;SDS011;7934;48.710;9.024;2023-02-01T05:16:12;3.85;;;3.55;;
15667;SDS011;7934;48.710;9.024;2023-02-01T05:18:39;3.95;;;3.65;;
15667;SDS011;7934;48.710;9.024;2023-02-01T05:21:08;4.25;;;3.60;;
15667;SDS011;7934;48.710;9.024;2023-02-01T05:23:35;4.45;;;4.05;;
15667;SDS011;7934;48.710;9.024;2023-02-01T05:26:24;3.70;;;3.40;;
15667;SDS011;7934;48.710;9.024;2023-02-01T05:28:52;3.47;;;3.17;;
15667;SDS011;7934;48.710;9.024;2023-02-01T05:31:19;3.90;;;3.60;;
15667;SDS011;7934;48.710;9.024;2023-02-01T05:33:47;3.55;;;3.28;;
15667;SDS011;7934;48.710;9.024;2023-02-01T05:36:15;3.97;;;3.30;;
15667;SDS011;7934;48.710;9.024;2023-02-01T05:38:42;4.53;;;3.55;;
15667;SDS011;7934;48.710;9.024;2023-02-01T05:41:10;3.50;;;3.20;;
15667;SDS011;7934;48.710;9.024;2023-02-01T05:43:37;4.18;;;3.78;;
15667;SDS011;7934;48.710;9.024;2023-02-01T05:46:04;3.70;;;3.40;;
15667;SDS011;7934;48.710;9.024;2023-02-01T05:48:31;3.67;;;3.40;;
15667;SDS011;7934;48.710;9.024;2023-02-01T05:50:58;3.20;;;3.00;;
15667;SDS011;7934;48.710;9.024;2023-02-01T05:53:27;3.50;;;3.30;;
15667;SDS011;7934;48.710;9.024;2023-02-01T05:55:54;3.30;;;3.10;;
15667;SDS011;7934;48.710;9.024;2023-02-01T05:58:21;3.50;;;3.20;;
15667;SDS011;7934;48.710;9.024;2023-02-01T06:00:48;3.45;;;3.15;;
15667;SDS011;7934;48.710;9.024;2023-02-01T06:03:16;3.80;;;3.20;;
15667;SDS011;7934;48.710;9.024;2023-02-01T06:05:43;3.63;;;3.25;;
15667;SDS011;7934;48.710;9.024;2023-02-01T06:08:11;4.40;;;3.28;;
15667;SDS011;7934;48.710;9.024;2023-02-01T06:10:39;4.20;;;3.55;;
15667;SDS011;7934;48.710;9.024;2023-02-01T06:13:07;3.92;;;3.63;;
15667;SDS011;7934;48.710;9.024;2023-02-01T06:15:34;4.67;;;3.90;;
15667;SDS011;7934;48.710;9.024;2023-02-01T06:18:02;7.38;;;4.40;;
15667;SDS011;7934;48.710;9.024;2023-02-01T06:20:30;4.53;;;4.13;;
15667;SDS011;7934;48.710;9.024;2023-02-01T06:22:57;7.63;;;3.80;;
15667;SDS011;7934;48.710;9.024;2023-02-01T06:25:24;4.43;;;4.05;;
15667;SDS011;7934;48.710;9.024;2023-02-01T06:27:52;4.22;;;3.75;;
15667;SDS011;7934;48.710;9.024;2023-02-01T06:30:20;6.53;;;4.20;;
15667;SDS011;7934;48.710;9.024;2023-02-01T06:32:50;5.07;;;4.20;;
15667;SDS011;7934;48.710;9.024;2023-02-01T06:35:19;5.70;;;4.10;;
15667;SDS011;7934;48.710;9.024;2023-02-01T06:37:46;5.07;;;4.20;;
15667;SDS011;7934;48.710;9.024;2023-02-01T06:40:13;8.77;;;4.20;;
15667;SDS011;7934;48.710;9.024;2023-02-01T06:42:41;7.03;;;3.87;;
15667;SDS011;7934;48.710;9.024;2023-02-01T06:45:09;6.53;;;3.80;;
15667;SDS011;7934;48.710;9.024;2023-02-01T06:47:37;4.22;;;3.80;;
15667;SDS011;7934;48.710;9.024;2023-02-01T06:50:04;4.78;;;4.13;;
15667;SDS011;7934;48.710;9.024;2023-02-01T06:52:32;7.35;;;4.10;;
15667;SDS011;7934;48.710;9.024;2023-02-01T06:54:59;6.07;;;4.20;;
15667;SDS011;7934;48.710;9.024;2023-02-01T06:57:26;9.30;;;3.90;;
15667;SDS011;7934;48.710;9.024;2023-02-01T06:59:55;7.07;;;3.72;;
15667;SDS011;7934;48.710;9.024;2023-02-01T07:02:24;8.93;;;4.20;;
15667;SDS011;7934;48.710;9.024;2023-02-01T07:04:52;5.68;;;3.85;;
15667;SDS011;7934;48.710;9.024;2023-02-01T07:07:19;7.60;;;4.10;;
15667;SDS011;7934;48.710;9.024;2023-02-01T07:09:47;6.32;;;3.72;;
15667;SDS011;7934;48.710;9.024;2023-02-01T07:12:14;4.40;;;3.90;;
15667;SDS011;7934;48.710;9.024;2023-02-01T07:14:42;6.03;;;3.75;;
15667;SDS011;7934;48.710;9.024;2023-02-01T07:17:09;6.50;;;3.67;;
15667;SDS011;7934;48.710;9.024;2023-02-01T07:19:37;4.85;;;3.60;;
15667;SDS011;7934;48.710;9.024;2023-02-01T07:22:04;5.22;;;3.55;;
15667;SDS011;7934;48.710;9.024;2023-02-01T07:24:33;5.57;;;3.33;;
15667;SDS011;7934;48.710;9.024;2023-02-01T07:27:00;5.40;;;3.50;;
15667;SDS011;7934;48.710;9.024;2023-02-01T07:29:28;5.13;;;3.63;;
15667;SDS011;7934;48.710;9.024;2023-02-01T07:31:55;4.93;;;3.72;;
15667;SDS011;7934;48.710;9.024;2023-02-01T07:34:23;5.50;;;3.53;;
15667;SDS011;7934;48.710;9.024;2023-02-01T07:36:51;3.40;;;3.10;;
15667;SDS011;7934;48.710;9.024;2023-02-01T07:39:18;5.68;;;3.92;;
15667;SDS011;7934;48.710;9.024;2023-02-01T07:41:51;5.88;;;3.95;;
15667;SDS011;7934;48.710;9.024;2023-02-01T07:44:18;4.10;;;3.80;;
15667;SDS011;7934;48.710;9.024;2023-02-01T07:46:49;3.38;;;3.08;;
15667;SDS011;7934;48.710;9.024;2023-02-01T07:49:16;4.15;;;3.30;;
15667;SDS011;7934;48.710;9.024;2023-02-01T07:51:44;7.50;;;3.45;;
15667;SDS011;7934;48.710;9.024;2023-02-01T07:54:12;5.22;;;3.38;;
15667;SDS011;7934;48.710;9.024;2023-02-01T07:56:39;6.00;;;2.97;;
15667;SDS011;7934;48.710;9.024;2023-02-01T07:59:07;6.25;;;3.42;;
15667;SDS011;7934;48.710;9.024;2023-02-01T08:01:34;5.93;;;3.53;;
15667;SDS011;7934;48.710;9.024;2023-02-01T08:04:01;8.88;;;3.75;;
15667;SDS011;7934;48.710;9.024;2023-02-01T08:06:30;5.72;;;3.30;;
15667;SDS011;7934;48.710;9.024;2023-02-01T08:08:57;4.15;;;3.20;;
15667;SDS011;7934;48.710;9.024;2023-02-01T08:11:29;6.30;;;3.50;;
15667;SDS011;7934;48.710;9.024;2023-02-01T08:13:57;5.80;;;3.70;;
15667;SDS011;7934;48.710;9.024;2023-02-01T08:16:25;6.97;;;3.58;;
15667;SDS011;7934;48.710;9.024;2023-02-01T08:18:52;8.10;;;3.50;;
15667;SDS011;7934;48.710;9.024;2023-02-01T08:21:20;9.73;;;3.72;;
15667;SDS011;7934;48.710;9.024;2023-02-01T08:23:48;7.03;;;3.22;;
15667;SDS011;7934;48.710;9.024;2023-02-01T08:26:15;7.55;;;3.75;;
15667;SDS011;7934;48.710;9.024;2023-02-01T08:28:46;9.52;;;3.85;;
15667;SDS011;7934;48.710;9.024;2023-02-01T08:31:14;8.52;;;3.85;;
15667;SDS011;7934;48.710;9.024;2023-02-01T08:33:42;7.43;;;3.65;;
15667;SDS011;7934;48.710;9.024;2023-02-01T08:36:10;8.85;;;4.22;;
15667;SDS011;7934;48.710;9.024;2023-02-01T08:38:38;11.05;;;3.70;;
15667;SDS011;7934;48.710;9.024;2023-02-01T08:41:06;7.43;;;3.30;;
15667;SDS011;7934;48.710;9.024;2023-02-01T08:43:34;9.38;;;3.55;;
15667;SDS011;7934;48.710;9.024;2023-02-01T08:46:03;10.90;;;3.50;;
15667;SDS011;7934;48.710;9.024;2023-02-01T08:48:30;16.73;;;4.47;;
15667;SDS011;7934;48.710;9.024;2023-02-01T08:51:00;12.43;;;4.25;;
15667;SDS011;7934;48.710;9.024;2023-02-01T08:53:28;7.68;;;3.05;;
15667;SDS011;7934;48.710;9.024;2023-02-01T08:55:55;9.60;;;3.67;;
15667;SDS011;7934;48.710;9.024;2023-02-01T08:58:23;9.95;;;2.97;;
15667;SDS011;7934;48.710;9.024;2023-02-01T09:00:52;7.25;;;2.70;;
15667;SDS011;7934;48.710;9.024;2023-02-01T09:03:21;6.47;;;3.03;;
15667;SDS011;7934;48.710;9.024;2023-02-01T09:05:52;8.85;;;2.88;;
15667;SDS011;7934;48.710;9.024;2023-02-01T09:08:19;5.93;;;2.47;;
15667;SDS011;7934;48.710;9.024;2023-02-01T09:10:46;7.18;;;3.10;;
15667;SDS011;7934;48.710;9.024;2023-02-01T09:13:16;10.65;;;2.83;;
15667;SDS011;7934;48.710;9.024;2023-02-01T09:15:43;9.07;;;2.90;;
15667;SDS011;7934;48.710;9.024;2023-02-01T09:18:11;8.38;;;2.60;;
15667;SDS011;7934;48.710;9.024;2023-02-01T09:20:39;6.45;;;2.90;;
15667;SDS011;7934;48.710;9.024;2023-02-01T09:23:06;6.35;;;3.13;;
15667;SDS011;7934;48.710;9.024;2023-02-01T09:25:33;8.25;;;3.33;;
15667;SDS011;7934;48.710;9.024;2023-02-01T09:28:01;5.93;;;2.88;;
15667;SDS011;7934;48.710;9.024;2023-02-01T09:30:31;8.35;;;3.42;;
15667;SDS011;7934;48.710;9.024;2023-02-01T09:32:58;8.07;;;3.50;;
15667;SDS011;7934;48.710;9.024;2023-02-01T09:35:25;11.45;;;3.63;;
15667;SDS011;7934;48.710;9.024;2023-02-01T09:37:54;9.90;;;3.50;;
15667;SDS011;7934;48.710;9.024;2023-02-01T09:40:21;9.60;;;3.83;;
15667;SDS011;7934;48.710;9.024;2023-02-01T09:42:56;9.90;;;3.50;;
15667;SDS011;7934;48.710;9.024;2023-02-01T09:45:26;11.77;;;3.30;;
15667;SDS011;7934;48.710;9.024;2023-02-01T09:47:57;13.32;;;3.85;;
15667;SDS011;7934;48.710;9.024;2023-02-01T09:50:28;11.50;;;3.80;;
15667;SDS011;7934;48.710;9.024;2023-02-01T09:53:00;8.63;;;3.50;;
15667;SDS011;7934;48.710;9.024;2023-02-01T09:55:32;11.10;;;3.53;;
15667;SDS011;7934;48.710;9.024;2023-02-01T09:58:02;9.35;;;3.15;;
15667;SDS011;7934;48.710;9.024;2023-02-01T10:00:34;10.93;;;3.38;;
15667;SDS011;7934;48.710;9.024;2023-02-01T10:03:02;11.18;;;3.20;;
15667;SDS011;7934;48.710;9.024;2023-02-01T10:05:44;13.48;;;3.25;;
15667;SDS011;7934;48.710;9.024;2023-02-01T10:08:22;11.93;;;3.05;;
15667;SDS011;7934;48.710;9.024;2023-02-01T10:10:52;7.88;;;3.15;;
15667;SDS011;7934;48.710;9.024;2023-02-01T10:13:27;8.07;;;2.97;;
15667;SDS011;7934;48.710;9.024;2023-02-01T10:16:01;9.75;;;3.20;;
15667;SDS011;7934;48.710;9.024;2023-02-01T10:18:34;11.07;;;3.30;;
15667;SDS011;7934;48.710;9.024;2023-02-01T10:21:04;13.68;;;3.30;;
15667;SDS011;7934;48.710;9.024;2023-02-01T10:23:49;8.80;;;2.78;;
15667;SDS011;7934;48.710;9.024;2023-02-01T10:26:20;10.65;;;3.22;;
15667;SDS011;7934;48.710;9.024;2023-02-01T10:28:48;10.57;;;3.10;;
15667;SDS011;7934;48.710;9.024;2023-02-01T10:31:16;10.13;;;2.88;;
15667;SDS011;7934;48.710;9.024;2023-02-01T10:33:44;10.32;;;3.13;;
15667;SDS011;7934;48.710;9.024;2023-02-01T10:36:13;14.45;;;3.42;;
15667;SDS011;7934;48.710;9.024;2023-02-01T10:38:43;10.05;;;3.53;;
15667;SDS011;7934;48.710;9.024;2023-02-01T10:41:13;10.50;;;3.38;;
15667;SDS011;7934;48.710;9.024;2023-02-01T10:43:41;10.52;;;3.15;;
15667;SDS011;7934;48.710;9.024;2023-02-01T10:46:09;7.80;;;3.33;;
15667;SDS011;7934;48.710;9.024;2023-02-01T10:48:36;10.45;;;2.92;;
15667;SDS011;7934;48.710;9.024;2023-02-01T10:51:06;8.48;;;2.85;;
15667;SDS011;7934;48.710;9.024;2023-02-01T10:53:34;11.43;;;2.95;;
15667;SDS011;7934;48.710;9.024;2023-02-01T10:56:05;12.60;;;3.33;;
15667;SDS011;7934;48.710;9.024;2023-02-01T10:58:34;10.98;;;3.22;;
15667;SDS011;7934;48.710;9.024;2023-02-01T11:01:03;8.70;;;2.90;;
15667;SDS011;7934;48.710;9.024;2023-02-01T11:03:36;12.20;;;3.30;;
15667;SDS011;7934;48.710;9.024;2023-02-01T11:06:10;12.03;;;3.67;;
15667;SDS011;7934;48.710;9.024;2023-02-01T11:08:47;10.70;;;3.40;;
15667;SDS011;7934;48.710;9.024;2023-02-01T11:11:15;8.80;;;3.13;;
15667;SDS011;7934;48.710;9.024;2023-02-01T11:13:44;10.73;;;3.55;;
15667;SDS011;7934;48.710;9.024;2023-02-01T11:16:12;14.00;;;3.77;;
15667;SDS011;7934;48.710;9.024;2023-02-01T11:18:40;13.23;;;3.28;;
15667;SDS011;7934;48.710;9.024;2023-02-01T11:21:08;10.55;;;3.03;;
15667;SDS011;7934;48.710;9.024;2023-02-01T11:23:39;10.77;;;3.30;;
15667;SDS011;7934;48.710;9.024;2023-02-01T11:26:09;10.13;;;3.20;;
15667;SDS011;7934;48.710;9.024;2023-02-01T11:28:37;14.40;;;3.40;;
15667;SDS011;7934;48.710;9.024;2023-02-01T11:31:07;9.07;;;2.80;;
15667;SDS011;7934;48.710;9.024;2023-02-01T11:33:35;10.83;;;3.10;;
15667;SDS011;7934;48.710;9.024;2023-02-01T11:36:06;9.88;;;3.03;;
15667;SDS011;7934;48.710;9.024;2023-02-01T11:38:34;16.00;;;3.70;;
15667;SDS011;7934;48.710;9.024;2023-02-01T11:41:11;9.68;;;3.47;;
15667;SDS011;7934;48.710;9.024;2023-02-01T11:43:49;14.45;;;4.18;;
15667;SDS011;7934;48.710;9.024;2023-02-01T11:46:19;15.75;;;3.47;;
15667;SDS011;7934;48.710;9.024;2023-02-01T11:48:50;10.70;;;3.33;;
15667;SDS011;7934;48.710;9.024;2023-02-01T11:51:22;11.93;;;3.55;;
15667;SDS011;7934;48.710;9.024;2023-02-01T11:53:56;11.60;;;3.40;;
15667;SDS011;7934;48.710;9.024;2023-02-01T11:56:26;9.33;;;3.10;;
15667;SDS011;7934;48.710;9.024;2023-02-01T11:58:59;14.50;;;4.20;;
15667;SDS011;7934;48.710;9.024;2023-02-01T12:01:33;11.52;;;3.72;;
15667;SDS011;7934;48.710;9.024;2023-02-01T12:06:47;14.52;;;3.47;;
15667;SDS011;7934;48.710;9.024;2023-02-01T12:09:20;9.65;;;2.92;;
15667;SDS011;7934;48.710;9.024;2023-02-01T12:11:51;11.15;;;2.92;;
15667;SDS011;7934;48.710;9.024;2023-02-01T12:14:23;9.25;;;3.20;;
15667;SDS011;7934;48.710;9.024;2023-02-01T12:16:55;11.35;;;3.60;;
15667;SDS011;7934;48.710;9.024;2023-02-01T12:19:31;8.52;;;3.00;;
15667;SDS011;7934;48.710;9.024;2023-02-01T12:22:06;10.40;;;3.08;;
15667;SDS011;7934;48.710;9.024;2023-02-01T12:24:47;11.57;;;3.40;;
15667;SDS011;7934;48.710;9.024;2023-02-01T12:27:22;9.95;;;3.08;;
15667;SDS011;7934;48.710;9.024;2023-02-01T12:30:02;11.10;;;3.50;;
15667;SDS011;7934;48.710;9.024;2023-02-01T12:32:43;9.35;;;3.20;;
15667;SDS011;7934;48.710;9.024;2023-02-01T12:35:19;9.77;;;3.17;;
15667;SDS011;7934;48.710;9.024;2023-02-01T12:37:59;11.15;;;3.33;;
15667;SDS011;7934;48.710;9.024;2023-02-01T12:40:33;13.60;;;3.10;;
15667;SDS011;7934;48.710;9.024;2023-02-01T12:43:04;11.88;;;3.05;;
15667;SDS011;7934;48.710;9.024;2023-02-01T12:45:34;8.70;;;2.88;;
15667;SDS011;7934;48.710;9.024;2023-02-01T12:48:08;10.20;;;3.40;;
15667;SDS011;7934;48.710;9.024;2023-02-01T12:50:40;11.30;;;3.55;;
15667;SDS011;7934;48.710;9.024;2023-02-01T12:53:09;8.98;;;3.03;;
15667;SDS011;7934;48.710;9.024;2023-02-01T12:55:46;12.75;;;3.10;;
15667;SDS011;7934;48.710;9.024;2023-02-01T12:58:15;10.57;;;3.27;;
15667;SDS011;7934;48.710;9.024;2023-02-01T13:00:44;12.05;;;3.17;;
15667;SDS011;7934;48.710;9.024;2023-02-01T13:03:26;7.93;;;2.88;;
15667;SDS011;7934;48.710;9.024;2023-02-01T13:05:55;14.25;;;3.25;;
15667;SDS011;7934;48.710;9.024;2023-02-01T13:08:24;13.40;;;3.63;;
15667;SDS011;7934;48.710;9.024;2023-02-01T13:10:53;10.63;;;3.03;;
15667;SDS011;7934;48.710;9.024;2023-02-01T13:13:25;13.55;;;3.38;;
15667;SDS011;7934;48.710;9.024;2023-02-01T13:16:06;8.90;;;2.90;;
15667;SDS011;7934;48.710;9.024;2023-02-01T13:18:36;11.05;;;3.20;;
15667;SDS011;7934;48.710;9.024;2023-02-01T13:21:05;10.57;;;3.03;;
15667;SDS011;7934;48.710;9.024;2023-02-01T13:23:33;8.15;;;2.92;;
15667;SDS011;7934;48.710;9.024;2023-02-01T13:26:01;14.33;;;3.40;;
15667;SDS011;7934;48.710;9.024;2023-02-01T13:28:40;9.65;;;3.58;;
15667;SDS011;7934;48.710;9.024;2023-02-01T13:31:14;7.50;;;2.80;;
15667;SDS011;7934;48.710;9.024;2023-02-01T13:33:50;10.70;;;3.17;;
15667;SDS011;7934;48.710;9.024;2023-02-01T13:36:27;10.75;;;3.30;;
15667;SDS011;7934;48.710;9.024;2023-02-01T13:41:54;9.07;;;2.93;;
15667;SDS011;7934;48.710;9.024;2023-02-01T13:44:25;10.50;;;3.10;;
15667;SDS011;7934;48.710;9.024;2023-02-01T13:46:56;10.52;;;3.60;;
15667;SDS011;7934;48.710;9.024;2023-02-01T13:49:26;12.15;;;3.13;;
15667;SDS011;7934;48.710;9.024;2023-02-01T13:51:55;10.38;;;2.97;;
15667;SDS011;7934;48.710;9.024;2023-02-01T13:54:26;7.95;;;2.83;;
15667;SDS011;7934;48.710;9.024;2023-02-01T13:56:54;10.55;;;3.03;;
15667;SDS011;7934;48.710;9.024;2023-02-01T13:59:37;10.33;;;3.43;;
15667;SDS011;7934;48.710;9.024;2023-02-01T14:05:02;9.15;;;2.97;;
15667;SDS011;7934;48.710;9.024;2023-02-01T14:07:30;10.57;;;3.30;;
15667;SDS011;7934;48.710;9.024;2023-02-01T14:09:57;9.25;;;3.17;;
15667;SDS011;7934;48.710;9.024;2023-02-01T14:12:42;10.85;;;3.55;;
15667;SDS011;7934;48.710;9.024;2023-02-01T14:15:18;5.78;;;2.45;;
15667;SDS011;7934;48.710;9.024;2023-02-01T14:17:46;9.15;;;3.28;;
15667;SDS011;7934;48.710;9.024;2023-02-01T14:23:29;14.73;;;4.18;;
15667;SDS011;7934;48.710;9.024;2023-02-01T14:26:18;9.00;;;3.60;;
15667;SDS011;7934;48.710;9.024;2023-02-01T14:28:51;13.68;;;4.32;;
15667;SDS011;7934;48.710;9.024;2023-02-01T14:31:27;11.63;;;3.92;;
15667;SDS011;7934;48.710;9.024;2023-02-01T14:33:57;9.65;;;3.35;;
15667;SDS011;7934;48.710;9.024;2023-02-01T14:36:25;8.85;;;3.30;;
15667;SDS011;7934;48.710;9.024;2023-02-01T14:38:54;8.00;;;3.22;;
15667;SDS011;7934;48.710;9.024;2023-02-01T14:41:31;11.50;;;4.05;;
15667;SDS011;7934;48.710;9.024;2023-02-01T14:47:06;9.05;;;3.22;;
15667;SDS011;7934;48.710;9.024;2023-02-01T14:49:34;11.23;;;3.38;;
15667;SDS011;7934;48.710;9.024;2023-02-01T14:52:04;10.53;;;3.07;;
15667;SDS011;7934;48.710;9.024;2023-02-01T14:54:34;10.88;;;2.85;;
15667;SDS011;7934;48.710;9.024;2023-02-01T14:57:01;10.98;;;3.40;;
15667;SDS011;7934;48.710;9.024;2023-02-01T14:59:29;7.37;;;3.20;;
15667;SDS011;7934;48.710;9.024;2023-02-01T15:01:58;9.63;;;3.22;;
15667;SDS011;7934;48.710;9.024;2023-02-01T15:04:27;9.73;;;3.15;;
15667;SDS011;7934;48.710;9.024;2023-02-01T15:06:55;9.90;;;3.40;;
15667;SDS011;7934;48.710;9.024;2023-02-01T15:09:25;11.23;;;3.40;;
15667;SDS011;7934;48.710;9.024;2023-02-01T15:12:01;11.43;;;3.90;;
15667;SDS011;7934;48.710;9.024;2023-02-01T15:14:29;11.80;;;3.58;;
15667;SDS011;7934;48.710;9.024;2023-02-01T15:16:56;12.43;;;3.03;;
15667;SDS011;7934;48.710;9.024;2023-02-01T15:19:25;10.35;;;3.20;;
15667;SDS011;7934;48.710;9.024;2023-02-01T15:21:53;10.35;;;3.25;;
15667;SDS011;7934;48.710;9.024;2023-02-01T15:24:21;13.52;;;3.72;;
15667;SDS011;7934;48.710;9.024;2023-02-01T15:26:48;8.95;;;3.50;;
15667;SDS011;7934;48.710;9.024;2023-02-01T15:29:17;10.23;;;3.13;;
15667;SDS011;7934;48.710;9.024;2023-02-01T15:31:46;9.40;;;2.97;;
15667;SDS011;7934;48.710;9.024;2023-02-01T15:34:13;10.02;;;3.25;;